Time;durP1;ratioP1;P1;durP2;ratioP2;P2;SDS_P1;SDS_P2;PMS_P1;PMS_P2;Temp;Humidity;BMP_temperature;BMP_pressure;BME280_temperature;BME280_humidity;BME280_pressure;Samples;Min_cycle;Max_cycle;Signal;HPM_P1;HPM_P2
2023/10/23 00:01:38;;;;;;;8.77;6.13;;;;;;;7.75;100.00;101263.72;6215106;23;20004;-94
2023/10/23 00:04:04;;;;;;;8.68;6.75;;;;;;;7.71;100.00;101269.91;6226282;23;20434;-92
2023/10/23 00:06:29;;;;;;;7.63;5.93;;;;;;;7.60;100.00;101255.88;6245338;23;20008;-87
2023/10/23 00:08:55;;;;;;;8.60;6.53;;;;;;;7.66;100.00;101276.97;6245263;23;20057;-78
2023/10/23 00:11:25;;;;;;;8.77;6.45;;;;;;;7.47;100.00;101256.41;6245570;23;20007;-93
2023/10/23 00:13:50;;;;;;;8.50;5.75;;;;;;;7.46;100.00;101251.31;6245691;23;20007;-84
2023/10/23 00:16:16;;;;;;;9.38;6.45;;;;;;;7.60;100.00;101276.44;6245480;23;20004;-82
2023/10/23 00:18:41;;;;;;;11.02;7.00;;;;;;;7.57;100.00;101267.13;6245377;23;20004;-80
2023/10/23 00:21:08;;;;;;;9.27;6.63;;;;;;;7.66;100.00;101274.41;6246842;23;20474;-81
2023/10/23 00:23:33;;;;;;;9.85;7.05;;;;;;;7.76;100.00;101277.41;6247242;23;20040;-79
2023/10/23 00:25:58;;;;;;;10.02;7.25;;;;;;;7.75;100.00;101265.47;6247246;23;19997;-93
2023/10/23 00:28:24;;;;;;;10.23;7.20;;;;;;;7.65;100.00;101241.06;6247116;23;19996;-78
2023/10/23 00:30:49;;;;;;;9.93;6.97;;;;;;;7.62;100.00;101236.91;6247871;23;20015;-92
2023/10/23 00:33:14;;;;;;;8.93;6.93;;;;;;;7.88;100.00;101279.47;6247268;23;20426;-89
2023/10/23 00:35:40;;;;;;;8.48;6.95;;;;;;;7.85;100.00;101274.44;6219111;23;20004;-82
2023/10/23 00:38:05;;;;;;;8.40;6.13;;;;;;;7.73;100.00;101260.41;6247176;23;20422;-79
2023/10/23 00:40:31;;;;;;;9.10;6.95;;;;;;;7.80;100.00;101270.41;6246991;23;20004;-91
2023/10/23 00:42:56;;;;;;;9.02;6.50;;;;;;;7.79;100.00;101279.03;6247231;23;20055;-92
2023/10/23 00:45:22;;;;;;;9.02;6.20;;;;;;;7.64;100.00;101262.53;6247520;23;20003;-78
2023/10/23 00:47:48;;;;;;;10.00;6.60;;;;;;;7.72;100.00;101283.59;6247507;23;20000;-95
2023/10/23 00:50:13;;;;;;;8.63;6.68;;;;;;;7.57;100.00;101258.56;6246148;23;20012;-93
2023/10/23 00:52:39;;;;;;;7.32;5.88;;;;;;;7.61;100.00;101276.34;6257288;23;20019;-80
2023/10/23 00:55:05;;;;;;;8.38;6.88;;;;;;;7.48;100.00;101268.34;6259156;23;20023;-91
2023/10/23 00:57:31;;;;;;;9.07;6.40;;;;;;;7.31;100.00;101245.09;6253006;23;20414;-91
2023/10/23 00:59:57;;;;;;;9.32;6.40;;;;;;;7.44;100.00;101278.81;6249425;23;20010;-85
2023/10/23 01:02:22;;;;;;;8.52;6.45;;;;;;;7.24;100.00;101260.84;6247902;23;20004;-87
2023/10/23 01:04:50;;;;;;;10.02;7.43;;;;;;;7.38;100.00;101285.06;6247175;23;20389;-84
2023/10/23 01:07:15;;;;;;;9.38;7.15;;;;;;;7.33;100.00;101281.84;6247919;23;20036;-81
2023/10/23 01:09:40;;;;;;;11.02;6.80;;;;;;;7.30;100.00;101284.53;6247479;23;20004;-82
2023/10/23 01:12:06;;;;;;;11.13;6.95;;;;;;;7.16;100.00;101269.69;6247622;23;20004;-93
2023/10/23 01:14:31;;;;;;;9.07;6.32;;;;;;;7.25;100.00;101296.72;6247859;23;20011;-94
2023/10/23 01:16:56;;;;;;;9.52;6.93;;;;;;;7.27;100.00;101294.09;6246891;23;20020;-94
2023/10/23 01:19:22;;;;;;;9.10;6.38;;;;;;;7.21;100.00;101290.06;6245668;23;20000;-93
2023/10/23 01:21:47;;;;;;;10.20;6.75;;;;;;;7.20;100.00;101298.69;6247180;23;20038;-94
2023/10/23 01:24:14;;;;;;;10.10;6.95;;;;;;;7.18;100.00;101300.47;6247156;23;20039;-94
2023/10/23 01:26:40;;;;;;;8.73;6.80;;;;;;;7.14;100.00;101294.63;6220106;23;20011;-83
2023/10/23 01:29:05;;;;;;;10.57;7.15;;;;;;;7.04;100.00;101284.78;6244212;23;20012;-89
2023/10/23 01:31:31;;;;;;;9.45;7.07;;;;;;;7.01;100.00;101282.34;6246707;23;20340;-92
2023/10/23 01:33:56;;;;;;;12.13;7.35;;;;;;;6.93;100.00;101280.09;6246790;23;20092;-93
2023/10/23 01:36:21;;;;;;;10.57;6.72;;;;;;;7.05;100.00;101299.28;6247439;23;20079;-93
2023/10/23 01:38:47;;;;;;;9.23;6.80;;;;;;;6.87;100.00;101275.19;6247109;23;20004;-77
2023/10/23 01:41:12;;;;;;;11.80;7.15;;;;;;;7.02;100.00;101292.56;6246662;23;20330;-77
2023/10/23 01:43:37;;;;;;;11.95;7.18;;;;;;;7.01;100.00;101287.47;6246606;23;20387;-77
2023/10/23 01:46:03;;;;;;;13.57;7.63;;;;;;;7.03;100.00;101283.94;6246543;23;20023;-77
2023/10/23 01:48:28;;;;;;;10.93;7.10;;;;;;;7.01;100.00;101283.19;6218976;23;20411;-77
2023/10/23 01:50:53;;;;;;;10.98;7.47;;;;;;;6.98;100.00;101285.03;6246561;23;20008;-77
2023/10/23 01:53:19;;;;;;;12.55;7.30;;;;;;;6.74;100.00;101251.75;6246764;23;20011;-77
2023/10/23 01:55:44;;;;;;;11.02;7.20;;;;;;;6.94;100.00;101288.63;6246403;23;20032;-78
2023/10/23 01:58:09;;;;;;;10.95;7.55;;;;;;;6.77;100.00;101268.75;6246166;23;20011;-77
2023/10/23 02:00:35;;;;;;;11.48;7.20;;;;;;;6.94;100.00;101292.03;6246177;23;20027;-77
2023/10/23 02:03:00;;;;;;;10.07;7.47;;;;;;;6.88;100.00;101285.41;6246713;23;20004;-80
2023/10/23 02:05:26;;;;;;;12.70;6.57;;;;;;;6.78;100.00;101273.00;6246267;23;20008;-77
2023/10/23 02:07:51;;;;;;;10.93;7.47;;;;;;;6.84;100.00;101288.16;6246385;23;20007;-77
2023/10/23 02:10:16;;;;;;;12.25;6.93;;;;;;;6.55;100.00;101236.25;6246450;23;20004;-84
2023/10/23 02:12:42;;;;;;;10.95;6.95;;;;;;;6.82;100.00;101297.66;6246623;23;20047;-78
2023/10/23 02:15:09;;;;;;;11.45;7.07;;;;;;;6.46;100.00;101233.22;6246515;23;20000;-79
2023/10/23 02:17:34;;;;;;;10.32;6.72;;;;;;;6.67;100.00;101273.41;6246334;23;20075;-78
2023/10/23 02:19:59;;;;;;;9.50;6.80;;;;;;;6.72;100.00;101286.09;6246416;23;20032;-80
2023/10/23 02:22:25;;;;;;;10.10;6.97;;;;;;;6.76;100.00;101297.88;6246355;23;20004;-81
2023/10/23 02:24:50;;;;;;;10.93;7.10;;;;;;;6.60;100.00;101288.25;6246778;23;20000;-77
2023/10/23 02:27:16;;;;;;;11.02;7.20;;;;;;;6.72;100.00;101312.59;6245748;23;20008;-82
2023/10/23 02:29:41;;;;;;;10.75;7.10;;;;;;;6.71;100.00;101310.09;6246223;23;20004;-77
2023/10/23 02:32:07;;;;;;;10.20;6.55;;;;;;;6.66;100.00;101311.97;6246634;23;20153;-82
2023/10/23 02:34:35;;;;;;;10.60;6.40;;;;;;;6.68;100.00;101315.31;6246670;23;20007;-79
2023/10/23 02:37:00;;;;;;;9.38;6.65;;;;;;;6.67;100.00;101326.47;6246226;23;20000;-78
2023/10/23 02:39:26;;;;;;;11.32;7.45;;;;;;;6.67;100.00;101321.34;6246595;23;20004;-81
2023/10/23 02:41:51;;;;;;;12.93;7.93;;;;;;;6.61;100.00;101315.56;6242895;23;20330;-77
2023/10/23 02:44:16;;;;;;;15.07;7.82;;;;;;;6.70;100.00;101319.50;6245626;23;20071;-77
2023/10/23 02:46:42;;;;;;;13.63;8.43;;;;;;;6.77;100.00;101320.09;6245958;23;20000;-77
2023/10/23 02:49:07;;;;;;;13.25;8.77;;;;;;;6.76;100.00;101326.13;6246111;23;20015;-77
2023/10/23 02:51:32;;;;;;;13.50;8.65;;;;;;;6.73;100.00;101319.38;6245843;23;20442;-77
2023/10/23 02:53:58;;;;;;;13.02;7.75;;;;;;;6.76;100.00;101326.13;6245889;23;20122;-78
2023/10/23 02:56:23;;;;;;;12.20;7.68;;;;;;;6.71;100.00;101323.75;6245583;23;20004;-80
2023/10/23 02:58:48;;;;;;;16.17;9.25;;;;;;;6.64;100.00;101303.50;6245622;23;20195;-77
2023/10/23 03:01:23;;;;;;;15.63;8.45;;;;;;;6.75;100.00;101322.72;6245738;23;20000;-79
2023/10/23 03:03:49;;;;;;;12.50;8.32;;;;;;;6.77;100.00;101327.78;6245612;23;20080;-77
2023/10/23 03:06:15;;;;;;;16.10;8.57;;;;;;;6.68;100.00;101305.03;6246023;23;20207;-77
2023/10/23 03:08:40;;;;;;;12.68;8.40;;;;;;;6.75;100.00;101319.31;6245894;23;20004;-77
2023/10/23 03:11:06;;;;;;;13.45;8.90;;;;;;;6.63;100.00;101310.38;6245518;23;20149;-78
2023/10/23 03:13:32;;;;;;;12.10;8.20;;;;;;;6.69;100.00;101322.97;6245683;23;20004;-77
2023/10/23 03:15:57;;;;;;;12.90;7.93;;;;;;;6.54;100.00;101303.88;6245420;23;20004;-77
2023/10/23 03:18:22;;;;;;;14.88;8.65;;;;;;;6.63;100.00;101322.38;6245939;23;20058;-77
2023/10/23 03:20:48;;;;;;;11.80;7.57;;;;;;;6.60;100.00;101324.16;6245887;23;20012;-77
2023/10/23 03:23:13;;;;;;;10.77;6.97;;;;;;;6.54;100.00;101326.97;6245465;23;20004;-77
2023/10/23 03:25:38;;;;;;;12.32;7.28;;;;;;;6.53;100.00;101327.03;6245830;23;20012;-77
2023/10/23 03:28:04;;;;;;;13.48;8.00;;;;;;;6.52;100.00;101321.06;6245463;23;20000;-77
2023/10/23 03:30:29;;;;;;;12.20;7.78;;;;;;;6.35;100.00;101297.75;6245635;23;20092;-78
2023/10/23 03:32:54;;;;;;;12.07;7.43;;;;;;;6.41;100.00;101315.50;6245971;23;20015;-77
2023/10/23 03:35:20;;;;;;;12.90;7.47;;;;;;;6.46;100.00;101330.69;6245903;23;20004;-77
2023/10/23 03:37:45;;;;;;;10.93;7.80;;;;;;;6.44;100.00;101328.19;6245398;23;20760;-77
2023/10/23 03:40:11;;;;;;;13.13;7.82;;;;;;;6.38;100.00;101328.41;6250033;23;20004;-84
2023/10/23 03:42:36;;;;;;;11.68;7.70;;;;;;;6.39;100.00;101331.81;6249357;23;20001;-79
2023/10/23 03:45:03;;;;;;;20.05;8.10;;;;;;;6.20;100.00;101314.56;6249903;23;20004;-79
2023/10/23 03:47:29;;;;;;;12.98;7.78;;;;;;;6.27;100.00;101338.25;6248742;23;20053;-87
2023/10/23 03:49:54;;;;;;;12.85;7.50;;;;;;;6.09;100.00;101310.72;6246687;23;20008;-78
2023/10/23 03:52:19;;;;;;;12.63;7.85;;;;;;;6.12;100.00;101314.00;6245637;23;20058;-79
2023/10/23 03:54:45;;;;;;;12.68;8.05;;;;;;;6.20;100.00;101329.13;6245461;23;20058;-78
2023/10/23 03:57:10;;;;;;;12.63;7.85;;;;;;;6.15;100.00;101339.53;6245438;23;20004;-77
2023/10/23 03:59:35;;;;;;;14.43;8.23;;;;;;;6.16;100.00;101336.06;6245445;23;20334;-77
2023/10/23 04:02:00;;;;;;;11.35;7.97;;;;;;;6.11;100.00;101337.16;6245153;23;20418;-77
2023/10/23 04:04:26;;;;;;;11.48;7.38;;;;;;;5.99;100.00;101315.34;6245509;23;20015;-77
2023/10/23 04:06:51;;;;;;;12.27;7.65;;;;;;;6.06;100.00;101331.34;6245523;23;20027;-77
2023/10/23 04:09:16;;;;;;;11.75;7.70;;;;;;;6.00;100.00;101335.81;6245437;23;20468;-77
2023/10/23 04:11:42;;;;;;;13.25;7.85;;;;;;;5.85;100.00;101320.09;6245289;23;20000;-81
2023/10/23 04:14:08;;;;;;;12.68;7.70;;;;;;;5.68;100.00;101298.47;6245454;23;20050;-78
2023/10/23 04:16:34;;;;;;;12.55;7.88;;;;;;;5.95;100.00;101345.38;6245070;23;20322;-80
2023/10/23 04:18:59;;;;;;;10.25;7.40;;;;;;;5.83;100.00;101330.41;6243158;23;20008;-77
2023/10/23 04:21:24;;;;;;;11.93;7.93;;;;;;;5.92;100.00;101344.66;6245437;23;20101;-77
2023/10/23 04:23:50;;;;;;;12.27;7.82;;;;;;;5.89;100.00;101340.44;6243589;23;20393;-77
2023/10/23 04:26:15;;;;;;;10.80;7.65;;;;;;;5.86;100.00;101339.72;6245249;23;20000;-77
2023/10/23 04:28:40;;;;;;;11.35;6.95;;;;;;;5.84;100.00;101337.22;6247171;23;19991;-94
2023/10/23 04:36:16;;;;;;;14.90;8.02;;;;;;;4.95;100.00;101203.69;6222832;23;20710;-77
2023/10/23 04:38:41;;;;;;;13.65;8.35;;;;;;;5.79;100.00;101341.63;6214615;23;20393;-76
2023/10/23 04:41:07;;;;;;;17.20;9.10;;;;;;;5.64;100.00;101316.56;6214930;23;20004;-78
2023/10/23 04:43:34;;;;;;;15.85;8.57;;;;;;;5.59;100.00;101313.31;6214461;23;20005;-77
2023/10/23 04:45:59;;;;;;;17.70;9.45;;;;;;;5.78;100.00;101344.25;6214258;23;20000;-76
2023/10/23 04:48:25;;;;;;;14.23;8.68;;;;;;;5.72;100.00;101348.72;6214406;23;20032;-77
2023/10/23 04:50:50;;;;;;;24.50;9.15;;;;;;;5.58;100.00;101320.16;6214509;23;20011;-76
2023/10/23 04:53:15;;;;;;;17.13;9.23;;;;;;;5.71;100.00;101341.09;6214849;23;20063;-76
2023/10/23 04:55:41;;;;;;;24.20;10.43;;;;;;;5.59;100.00;101323.56;6214572;23;20060;-78
2023/10/23 04:58:07;;;;;;;19.90;9.77;;;;;;;5.19;100.00;101255.75;6214400;23;20008;-76
2023/10/23 05:00:38;;;;;;;22.13;9.80;;;;;;;5.44;100.00;101300.16;6214217;23;20431;-76
2023/10/23 05:03:04;;;;;;;21.83;10.80;;;;;;;5.60;100.00;101328.63;6214249;23;20005;-76
2023/10/23 05:05:30;;;;;;;28.52;10.70;;;;;;;5.69;100.00;101342.84;6214661;23;20039;-76
2023/10/23 05:07:56;;;;;;;35.38;9.93;;;;;;;5.73;100.00;101339.31;6216313;23;20407;-76
2023/10/23 05:10:21;;;;;;;21.30;10.35;;;;;;;5.78;100.00;101337.41;6216574;23;20008;-76
2023/10/23 05:12:49;;;;;;;22.35;10.32;;;;;;;5.78;100.00;101331.44;6216351;23;20009;-76
2023/10/23 05:15:15;;;;;;;23.05;9.80;;;;;;;5.66;100.00;101309.66;6215990;23;20004;-76
2023/10/23 05:17:40;;;;;;;32.22;10.38;;;;;;;5.86;100.00;101345.66;6215992;23;20012;-76
2023/10/23 05:20:06;;;;;;;32.30;10.57;;;;;;;5.80;100.00;101333.09;6216530;23;20047;-76
2023/10/23 05:22:32;;;;;;;26.65;9.30;;;;;;;5.86;100.00;101349.97;6216280;23;20036;-76
2023/10/23 05:24:57;;;;;;;30.15;9.68;;;;;;;5.88;100.00;101346.44;6216355;23;20080;-76
2023/10/23 05:27:22;;;;;;;24.38;8.68;;;;;;;5.88;100.00;101343.88;6216491;23;20000;-77
2023/10/23 05:29:48;;;;;;;29.67;7.80;;;;;;;5.89;100.00;101335.31;6215477;23;20031;-77
2023/10/23 05:32:13;;;;;;;29.48;7.75;;;;;;;5.80;100.00;101330.53;6189561;23;20001;-77
2023/10/23 05:34:38;;;;;;;19.23;8.38;;;;;;;5.82;100.00;101344.13;6216368;23;20000;-77
2023/10/23 05:37:04;;;;;;;18.80;8.23;;;;;;;5.82;100.00;101333.03;6215989;23;20343;-77
2023/10/23 05:39:29;;;;;;;19.98;8.00;;;;;;;5.76;100.00;101334.91;6216043;23;20439;-76
2023/10/23 05:41:55;;;;;;;35.38;8.40;;;;;;;5.76;100.00;101334.06;6216114;23;19996;-76
2023/10/23 05:44:20;;;;;;;20.77;9.00;;;;;;;5.73;100.00;101329.06;6215680;23;20004;-77
2023/10/23 05:46:46;;;;;;;28.02;9.13;;;;;;;5.64;100.00;101325.09;6215985;23;20031;-82
2023/10/23 05:49:11;;;;;;;16.65;7.97;;;;;;;5.54;100.00;101318.59;6215566;23;20015;-78
2023/10/23 05:51:36;;;;;;;15.75;8.38;;;;;;;5.41;100.00;101300.25;6216276;23;20007;-77
2023/10/23 05:54:02;;;;;;;14.98;8.38;;;;;;;5.58;100.00;101337.25;6216213;23;20005;-86
2023/10/23 05:56:29;;;;;;;13.63;8.80;;;;;;;5.56;100.00;101341.59;6217078;23;20058;-78
2023/10/23 05:58:54;;;;;;;13.27;8.55;;;;;;;5.53;100.00;101347.69;6216845;23;20011;-78
2023/10/23 06:01:19;;;;;;;15.63;9.02;;;;;;;5.43;100.00;101336.91;6217815;23;20036;-80
2023/10/23 06:03:45;;;;;;;15.57;8.13;;;;;;;5.34;100.00;101328.69;6217665;23;20016;-81
2023/10/23 06:06:12;;;;;;;13.18;7.80;;;;;;;5.38;100.00;101335.38;6217140;23;20001;-86
2023/10/23 06:08:38;;;;;;;11.60;8.90;;;;;;;5.40;100.00;101349.78;6217322;23;20127;-81
2023/10/23 06:11:07;;;;;;;15.07;8.13;;;;;;;5.38;100.00;101343.06;6218643;23;20005;-81
2023/10/23 06:13:33;;;;;;;14.55;8.77;;;;;;;5.34;100.00;101352.56;6218812;23;20027;-90
2023/10/23 06:16:02;;;;;;;11.75;8.65;;;;;;;5.37;100.00;101351.63;6192249;23;20370;-77
2023/10/23 06:18:27;;;;;;;11.43;8.15;;;;;;;5.37;100.00;101352.47;6217669;23;20000;-78
2023/10/23 06:21:03;;;;;;;11.00;8.25;;;;;;;5.24;100.00;101335.84;6217053;23;20000;-84
2023/10/23 06:23:29;;;;;;;11.43;8.63;;;;;;;5.34;100.00;101355.13;6216224;23;20008;-84
2023/10/23 06:25:55;;;;;;;10.88;8.02;;;;;;;5.37;100.00;101356.75;6216376;23;20004;-84
2023/10/23 06:28:20;;;;;;;11.85;8.13;;;;;;;5.37;100.00;101351.63;6218630;23;20449;-83
2023/10/23 06:30:51;;;;;;;10.05;7.75;;;;;;;5.29;100.00;101330.53;6220444;23;20005;-76
2023/10/23 06:33:17;;;;;;;12.75;7.63;;;;;;;5.34;100.00;101321.00;6223095;23;20008;-80
2023/10/23 06:35:42;;;;;;;26.73;9.45;;;;;;;5.60;100.00;101354.25;6226302;23;20001;-84
2023/10/23 06:38:08;;;;;;;13.77;8.05;;;;;;;5.63;100.00;101348.19;6221318;23;20043;-85
2023/10/23 06:40:33;;;;;;;19.70;8.38;;;;;;;5.51;100.00;101317.88;6215699;23;20015;-78
2023/10/23 06:42:59;;;;;;;20.08;9.23;;;;;;;5.70;100.00;101337.69;6216092;23;20298;-77
2023/10/23 06:45:24;;;;;;;19.90;8.25;;;;;;;5.73;100.00;101354.69;6215772;23;20001;-79
2023/10/23 06:47:49;;;;;;;19.73;8.90;;;;;;;5.53;100.00;101308.41;6215090;23;20008;-78
2023/10/23 06:50:17;;;;;;;18.70;8.75;;;;;;;5.86;100.00;101355.91;6214185;23;20008;-74
2023/10/23 06:52:46;;;;;;;15.88;8.32;;;;;;;5.92;100.00;101353.19;6216411;23;20001;-78
2023/10/23 06:55:11;;;;;;;17.08;8.75;;;;;;;6.06;100.00;101354.41;6215764;23;20004;-78
2023/10/23 06:57:37;;;;;;;26.58;9.02;;;;;;;6.08;100.00;101327.81;6215380;23;20079;-76
2023/10/23 07:00:03;;;;;;;22.33;9.13;;;;;;;6.23;100.00;101345.22;6215294;23;20326;-75
2023/10/23 07:02:28;;;;;;;21.70;8.90;;;;;;;6.36;100.00;101339.63;6214983;23;20008;-75
2023/10/23 07:04:53;;;;;;;34.38;9.60;;;;;;;6.45;100.00;101344.44;6215203;23;20013;-75
2023/10/23 07:07:19;;;;;;;46.90;9.95;;;;;;;6.56;100.00;101347.41;6215504;23;20014;-77
2023/10/23 07:09:45;;;;;;;25.48;9.45;;;;;;;6.59;100.00;101335.31;6215031;23;20330;-84
2023/10/23 07:12:10;;;;;;;18.92;9.27;;;;;;;6.68;100.00;101340.97;6215518;23;20005;-77
2023/10/23 07:14:36;;;;;;;22.48;8.98;;;;;;;6.77;100.00;101340.63;6215570;23;20395;-80
2023/10/23 07:17:02;;;;;;;22.23;9.15;;;;;;;6.88;100.00;101351.31;6215087;23;20139;-78
2023/10/23 07:19:27;;;;;;;24.83;9.57;;;;;;;6.97;100.00;101344.97;6215392;23;20000;-77
2023/10/23 07:21:52;;;;;;;23.52;8.57;;;;;;;7.01;100.00;101334.53;6215287;23;20004;-80
2023/10/23 07:24:21;;;;;;;20.17;9.27;;;;;;;6.88;100.00;101299.97;6215432;23;20001;-80
2023/10/23 07:26:46;;;;;;;28.35;9.88;;;;;;;7.02;100.00;101315.66;6217089;23;20403;-91
2023/10/23 07:29:11;;;;;;;16.52;9.32;;;;;;;7.18;100.00;101339.00;6217820;23;20056;-78
2023/10/23 07:31:37;;;;;;;22.17;10.10;;;;;;;7.03;100.00;101307.06;6216098;23;20052;-78
2023/10/23 07:34:03;;;;;;;16.73;9.10;;;;;;;7.14;100.00;101320.28;6215083;23;20005;-80
2023/10/23 07:36:29;;;;;;;15.90;9.05;;;;;;;7.23;100.00;101334.50;6215602;23;20131;-79
2023/10/23 07:38:54;;;;;;;14.40;8.75;;;;;;;7.28;100.00;101331.75;6215791;23;20024;-81
2023/10/23 07:41:20;;;;;;;13.20;9.32;;;;;;;7.31;100.00;101332.47;6215490;23;20009;-78
2023/10/23 07:43:45;;;;;;;15.70;9.45;;;;;;;7.35;100.00;101334.00;6215312;23;20008;-79
2023/10/23 07:46:11;;;;;;;14.27;9.85;;;;;;;7.21;100.00;101300.34;6215224;23;20023;-80
2023/10/23 07:48:36;;;;;;;15.02;10.73;;;;;;;7.30;100.00;101315.38;6214658;23;20005;-77
2023/10/23 07:51:03;;;;;;;14.13;9.15;;;;;;;7.46;100.00;101343.81;6214873;23;20009;-80
2023/10/23 07:53:29;;;;;;;15.27;10.50;;;;;;;7.28;100.00;101312.03;6215837;23;20031;-78
2023/10/23 07:55:55;;;;;;;14.32;10.20;;;;;;;7.42;100.00;101321.72;6214080;23;20015;-79
2023/10/23 07:58:20;;;;;;;18.58;10.68;;;;;;;7.63;100.00;101346.53;6216379;23;20319;-81
2023/10/23 08:00:45;;;;;;;15.40;10.57;;;;;;;7.65;100.00;101342.16;6215880;23;20028;-79
2023/10/23 08:03:11;;;;;;;17.50;12.20;;;;;;;7.80;100.00;101344.97;6214622;23;20323;-78
2023/10/23 08:05:37;;;;;;;19.13;12.75;;;;;;;7.68;100.00;101320.63;6214506;23;20138;-82
2023/10/23 08:08:04;;;;;;;16.90;11.38;;;;;;;7.77;100.00;101322.81;6214370;23;20036;-84
2023/10/23 08:10:29;;;;;;;18.20;11.50;;;;;;;7.65;100.00;101285.59;6215378;23;20001;-84
2023/10/23 08:12:55;;;;;;;17.42;11.90;;;;;;;7.90;100.00;101316.22;6215515;23;20072;-82
2023/10/23 08:15:20;;;;;;;17.20;11.05;;;;;;;7.88;100.00;101307.75;6214728;23;20404;-77
2023/10/23 08:17:45;;;;;;;17.48;11.43;;;;;;;7.91;100.00;101284.47;6214769;23;20009;-81
2023/10/23 08:20:11;;;;;;;17.38;11.38;;;;;;;8.24;100.00;101330.97;6214594;23;20005;-84
2023/10/23 08:22:36;;;;;;;18.48;11.68;;;;;;;8.30;100.00;101324.72;6214879;23;20001;-81
2023/10/23 08:25:02;;;;;;;18.48;11.98;;;;;;;8.28;100.00;101311.94;6188708;23;20005;-79
2023/10/23 08:27:28;;;;;;;18.73;11.68;;;;;;;8.44;100.00;101324.94;6215556;23;20004;-78
2023/10/23 08:29:53;;;;;;;17.25;12.07;;;;;;;8.43;100.00;101309.59;6214260;23;20014;-77
2023/10/23 08:32:18;;;;;;;17.95;12.65;;;;;;;8.51;100.00;101308.31;6214828;23;20000;-85
2023/10/23 08:34:44;;;;;;;20.55;13.60;;;;;;;8.70;100.00;101328.91;6214511;23;20059;-79
2023/10/23 08:37:12;;;;;;;17.15;12.82;;;;;;;8.75;100.00;101332.09;6214552;23;20103;-83
2023/10/23 08:39:39;;;;;;;19.90;13.43;;;;;;;8.52;100.00;101284.25;6215122;23;20028;-79
2023/10/23 08:42:05;;;;;;;18.92;13.65;;;;;;;8.91;100.00;101339.91;6216534;23;20011;-79
2023/10/23 08:44:30;;;;;;;18.80;13.43;;;;;;;8.99;100.00;101337.81;6216900;23;20000;-78
2023/10/23 08:46:56;;;;;;;18.13;13.25;;;;;;;8.91;100.00;101311.59;6216810;23;19997;-82
2023/10/23 08:49:21;;;;;;;17.23;13.35;;;;;;;8.80;100.00;101283.78;6217082;23;20415;-83
2023/10/23 08:52:10;;;;;;;18.58;12.45;;;;;;;9.23;100.00;101340.94;6216432;23;20015;-79
2023/10/23 08:54:36;;;;;;;17.33;11.60;;;;;;;9.36;100.00;101347.16;6216481;23;20024;-78
2023/10/23 08:57:02;;;;;;;15.73;12.07;;;;;;;9.48;100.00;101349.13;6216680;23;20000;-80
2023/10/23 08:59:28;;;;;;;16.77;12.13;;;;;;;9.55;100.00;101344.50;6217085;23;20000;-84
2023/10/23 09:01:54;;;;;;;18.80;12.32;;;;;;;9.59;100.00;101334.84;6216892;23;20005;-79
2023/10/23 09:04:20;;;;;;;17.13;12.23;;;;;;;9.76;100.00;101342.56;6216210;23;20009;-82
2023/10/23 09:06:46;;;;;;;15.95;11.95;;;;;;;9.59;100.00;101293.59;6216386;23;20051;-81
2023/10/23 09:09:12;;;;;;;16.95;11.52;;;;;;;9.93;100.00;101326.19;6216729;23;20008;-85
2023/10/23 09:11:43;;;;;;;15.93;11.25;;;;;;;10.04;100.00;101336.81;6215518;23;20055;-78
2023/10/23 09:14:08;;;;;;;20.65;11.45;;;;;;;10.15;100.00;101328.50;6216663;23;20004;-79
2023/10/23 09:16:34;;;;;;;17.77;11.18;;;;;;;10.23;100.00;101327.22;6217052;23;20012;-84
2023/10/23 09:18:59;;;;;;;17.65;10.98;;;;;;;10.32;100.00;101320.72;6216354;23;20465;-82
2023/10/23 09:21:25;;;;;;;18.33;11.18;;;;;;;10.39;100.00;101326.38;6216493;23;20071;-80
2023/10/23 09:23:55;;;;;;;17.45;11.32;;;;;;;10.46;100.00;101320.81;6216022;23;20005;-80
2023/10/23 09:26:26;;;;;;;18.23;10.15;;;;;;;10.40;100.00;101309.97;6218928;23;20034;-79
2023/10/23 09:28:52;;;;;;;;;;;;;;;10.59;100.00;101329.53;6219533;23;20012;-81
2023/10/23 09:31:19;;;;;;;16.23;10.55;;;;;;;10.62;100.00;101324.22;6216367;23;20003;-78
2023/10/23 09:33:46;;;;;;;13.77;9.65;;;;;;;10.70;100.00;101320.38;6216502;23;20088;-79
2023/10/23 09:36:12;;;;;;;17.05;10.10;;;;;;;10.52;100.00;101286.06;6216462;23;20079;-87
2023/10/23 09:38:41;;;;;;;17.73;9.32;;;;;;;10.80;100.00;101322.34;6217316;23;20035;-80
2023/10/23 09:41:11;;;;;;;14.98;8.75;;;;;;;10.80;100.00;101301.69;6217045;23;20007;-84
2023/10/23 09:43:45;;;;;;;14.18;8.57;;;;;;;10.94;100.00;101311.25;6217416;23;20008;-83
2023/10/23 09:46:12;;;;;;;16.98;8.70;;;;;;;10.94;100.00;101288.00;6216761;23;20009;-82
2023/10/23 09:48:43;;;;;;;13.10;8.30;;;;;;;11.16;100.00;101308.28;6216099;23;20008;-81
2023/10/23 09:51:16;;;;;;;14.13;8.23;;;;;;;11.23;100.00;101295.84;6190307;23;20327;-80
2023/10/23 09:53:58;;;;;;;12.35;7.68;;;;;;;11.16;100.00;101274.66;6216483;23;20005;-83
2023/10/23 09:56:28;;;;;;;12.40;7.63;;;;;;;11.36;100.00;101297.59;6215997;23;20028;-82
2023/10/23 09:58:58;;;;;;;14.93;7.30;;;;;;;10.47;100.00;101141.72;6215598;22;20017;-84
2023/10/23 10:01:31;;;;;;;14.05;7.50;;;;;;;11.37;100.00;101277.75;6189886;23;20332;-82
2023/10/23 10:04:00;;;;;;;15.20;6.95;;;;;;;11.64;100.00;101296.78;6216308;23;20000;-84
2023/10/23 10:06:26;;;;;;;12.88;6.50;;;;;;;11.70;100.00;101300.75;6215040;23;20331;-85
2023/10/23 10:08:55;;;;;;;15.10;7.20;;;;;;;11.74;100.00;101300.50;6215982;23;20097;-84
2023/10/23 10:11:21;;;;;;;12.68;6.53;;;;;;;11.80;100.00;101299.34;6188637;23;20009;-83
2023/10/23 10:13:47;;;;;;;14.60;7.65;;;;;;;11.86;100.00;101291.19;6215908;23;20008;-80
2023/10/23 10:16:14;;;;;;;14.38;7.55;;;;;;;11.83;100.00;101278.44;6215894;23;20000;-85
2023/10/23 10:18:46;;;;;;;16.92;9.10;;;;;;;11.72;100.00;101254.94;6216461;23;20016;-82
2023/10/23 10:21:19;;;;;;;16.80;8.48;;;;;;;11.90;100.00;101269.38;6216263;23;20005;-85
2023/10/23 10:23:45;;;;;;;17.65;7.05;;;;;;;11.85;100.00;101242.94;6216027;23;20057;-86
2023/10/23 10:26:11;;;;;;;13.65;7.15;;;;;;;12.15;100.00;101289.41;6216654;23;20005;-81
2023/10/23 10:28:39;;;;;;;12.63;7.20;;;;;;;12.20;100.00;101286.53;6216230;23;20498;-81
2023/10/23 10:31:04;;;;;;;14.45;8.25;;;;;;;12.28;100.00;101282.50;6215630;23;20008;-80
2023/10/23 10:33:31;;;;;;;13.02;7.40;;;;;;;12.41;100.00;101279.19;6216036;23;20005;-84
2023/10/23 10:36:03;;;;;;;14.43;7.18;;;;;;;12.46;100.00;101277.94;6215352;23;20054;-81
2023/10/23 10:38:30;;;;;;;12.40;6.43;;;;;;;12.48;100.00;101280.44;6216201;23;20084;-83
2023/10/23 10:41:34;;;;;;;12.85;7.13;;;;;;;12.54;100.00;101273.09;6189394;23;20008;-82
2023/10/23 10:44:00;;;;;;;13.88;6.78;;;;;;;12.27;100.00;101226.47;6123673;23;20041;-80
2023/10/23 10:46:26;;;;;;;13.75;6.57;;;;;;;12.34;100.00;101243.28;6122300;23;20006;-80
2023/10/23 10:48:55;;;;;;;10.30;6.22;;;;;;;12.47;100.00;101260.63;6123989;23;20535;-79
2023/10/23 10:51:22;;;;;;;13.63;6.63;;;;;;;12.59;100.00;101258.09;6123314;23;20122;-79
2023/10/23 10:54:03;;;;;;;12.27;6.30;;;;;;;12.50;100.00;101216.41;6123124;23;20006;-79
2023/10/23 10:56:31;;;;;;;9.65;5.57;;;;;;;12.70;100.00;101248.81;6123388;23;20314;-86
2023/10/23 10:59:01;;;;;;;13.38;6.10;;;;;;;12.70;100.00;101230.66;6123299;23;20017;-85
2023/10/23 11:01:26;;;;;;;13.18;6.43;;;;;;;12.84;100.00;101238.34;6123445;23;20018;-78
2023/10/23 11:03:51;;;;;;;18.00;6.45;;;;;;;12.94;100.00;101234.22;6123137;23;20462;-79
2023/10/23 11:06:17;;;;;;;14.23;6.53;;;;;;;12.98;100.00;101227.06;6122833;23;20515;-83
2023/10/23 11:08:43;;;;;;;17.67;6.43;;;;;;;12.97;100.00;101209.84;6145381;23;20043;-83
2023/10/23 11:11:09;;;;;;;17.15;6.68;;;;;;;13.04;100.00;101211.09;6215200;23;20063;-79
2023/10/23 11:13:35;;;;;;;13.55;5.88;;;;;;;12.87;100.00;101184.53;6215395;23;20423;-85
2023/10/23 11:16:01;;;;;;;12.07;5.47;;;;;;;13.16;100.00;101211.09;6215241;23;20502;-80